Time;durP1;ratioP1;P1;durP2;ratioP2;P2;SDS_P1;SDS_P2;PMS_P1;PMS_P2;Temp;Humidity;BMP_temperature;BMP_pressure;BME280_temperature;BME280_humidity;BME280_pressure;Samples;Min_cycle;Max_cycle;Signal;HPM_P1;HPM_P2
2024/04/11 00:00:39;;;;;;;4.65;1.10;;;11.40;99.90;;;;;;5507349;26;20049;-92
2024/04/11 00:03:06;;;;;;;7.85;2.17;;;11.40;99.90;;;;;;5521547;26;20377;-92
2024/04/11 00:05:33;;;;;;;5.35;1.23;;;11.50;99.90;;;;;;5521299;26;20033;-91
2024/04/11 00:08:00;;;;;;;5.40;0.80;;;11.50;99.90;;;;;;5519920;25;20370;-92
2024/04/11 00:10:27;;;;;;;4.40;0.88;;;11.50;99.90;;;;;;5503402;26;19997;-92
2024/04/11 00:12:54;;;;;;;3.13;1.13;;;11.40;99.90;;;;;;5520830;25;20021;-91
2024/04/11 00:15:21;;;;;;;5.20;1.25;;;11.40;99.90;;;;;;5521584;25;20029;-91
2024/04/11 00:17:49;;;;;;;4.07;1.45;;;11.40;99.90;;;;;;5519927;25;20021;-91
2024/04/11 00:20:16;;;;;;;5.22;1.20;;;11.50;99.90;;;;;;5489722;26;20542;-91
2024/04/11 00:22:46;;;;;;;4.85;1.48;;;11.40;99.90;;;;;;5459663;26;19993;-91
2024/04/11 00:25:14;;;;;;;4.38;0.88;;;11.40;99.90;;;;;;5452327;26;20340;-90
2024/04/11 00:27:41;;;;;;;8.30;2.13;;;11.40;99.90;;;;;;5475071;25;20183;-91
2024/04/11 00:30:08;;;;;;;5.80;2.25;;;11.50;99.90;;;;;;5475230;26;19993;-91
2024/04/11 00:32:35;;;;;;;9.73;2.40;;;11.50;99.90;;;;;;5476782;26;20203;-91
2024/04/11 00:35:04;;;;;;;6.30;1.17;;;11.50;99.90;;;;;;5478890;25;20004;-92
2024/04/11 00:37:32;;;;;;;10.38;2.60;;;11.50;99.90;;;;;;5474971;25;19994;-91
2024/04/11 00:39:59;;;;;;;5.75;1.60;;;11.50;99.90;;;;;;5473195;26;20450;-92
2024/04/11 00:42:26;;;;;;;8.65;2.28;;;11.50;99.90;;;;;;5443529;26;20003;-90
2024/04/11 00:44:53;;;;;;;4.25;1.20;;;11.60;99.90;;;;;;5475366;26;19993;-91
2024/04/11 00:47:20;;;;;;;4.25;0.90;;;11.60;99.90;;;;;;5476098;25;20004;-91
2024/04/11 00:49:48;;;;;;;5.80;0.70;;;11.50;99.90;;;;;;5476900;26;20546;-91
2024/04/11 00:52:15;;;;;;;3.47;0.80;;;11.50;99.90;;;;;;5446423;26;20192;-92
2024/04/11 00:54:42;;;;;;;5.13;1.75;;;11.50;99.90;;;;;;5478292;26;19994;-92
2024/04/11 00:57:09;;;;;;;2.92;1.13;;;11.50;99.90;;;;;;5478506;25;20343;-91
2024/04/11 00:59:40;;;;;;;6.25;1.40;;;11.50;99.90;;;;;;5446137;26;19994;-92
2024/04/11 01:02:08;;;;;;;4.28;1.55;;;11.50;99.90;;;;;;5444934;26;20771;-92
2024/04/11 01:04:35;;;;;;;10.50;2.53;;;11.50;99.90;;;;;;5444967;26;19994;-91
2024/04/11 01:07:11;;;;;;;2.40;0.60;;;11.60;99.90;;;;;;5448249;25;19993;-92
2024/04/11 01:09:43;;;;;;;4.50;1.13;;;11.60;99.90;;;;;;5475547;26;20775;-92
2024/04/11 01:12:14;;;;;;;8.68;2.35;;;11.60;99.90;;;;;;5464658;26;20328;-92
2024/04/11 01:14:42;;;;;;;8.95;1.27;;;11.60;99.90;;;;;;5445989;26;19999;-92
2024/04/11 01:17:13;;;;;;;3.38;1.08;;;11.60;99.90;;;;;;5447761;26;19993;-91
2024/04/11 01:19:47;;;;;;;8.73;2.20;;;11.60;99.90;;;;;;5479108;26;20546;-92
2024/04/11 01:22:14;;;;;;;;;;;11.60;99.90;;;;;;5478943;26;20000;-92
2024/04/11 01:24:41;;;;;;;3.33;0.80;;;11.60;99.90;;;;;;5446629;26;20442;-93
2024/04/11 01:27:11;;;;;;;6.38;1.70;;;11.60;99.90;;;;;;5447626;26;19993;-93
2024/04/11 01:29:39;;;;;;;5.45;1.15;;;11.60;99.90;;;;;;5447332;26;20670;-92
2024/04/11 01:32:07;;;;;;;6.20;1.38;;;11.60;99.90;;;;;;5446300;26;20007;-91
2024/04/11 01:34:35;;;;;;;7.93;1.38;;;11.60;99.90;;;;;;5478487;26;20790;-91
2024/04/11 01:37:02;;;;;;;4.35;0.88;;;11.60;99.90;;;;;;5446380;26;20451;-92
2024/04/11 01:39:30;;;;;;;3.30;0.95;;;11.50;99.90;;;;;;5444985;26;20000;-90
2024/04/11 01:41:57;;;;;;;13.20;2.67;;;11.50;99.90;;;;;;5445137;26;20191;-91
2024/04/11 01:44:24;;;;;;;13.32;3.00;;;11.60;99.90;;;;;;5442997;26;20428;-91
2024/04/11 01:46:54;;;;;;;3.53;0.88;;;11.60;99.90;;;;;;5444083;25;20803;-91
2024/04/11 01:49:21;;;;;;;9.52;1.50;;;11.60;99.90;;;;;;5444651;26;20411;-92
2024/04/11 01:51:48;;;;;;;6.43;1.50;;;11.60;99.90;;;;;;5476579;26;20066;-91
2024/04/11 01:54:16;;;;;;;6.68;2.63;;;11.50;99.90;;;;;;5477095;26;20593;-90
2024/04/11 01:56:43;;;;;;;5.30;1.10;;;11.50;99.90;;;;;;5478969;25;20004;-91
2024/04/11 01:59:09;;;;;;;1.95;0.57;;;11.50;99.90;;;;;;5480555;25;20450;-91
2024/04/11 02:01:37;;;;;;;8.95;2.10;;;11.50;99.90;;;;;;5447898;26;20179;-92
2024/04/11 02:04:05;;;;;;;3.30;0.75;;;11.60;99.90;;;;;;5481569;25;20004;-92
2024/04/11 02:06:34;;;;;;;7.88;1.30;;;11.60;99.90;;;;;;5480773;25;20767;-92
2024/04/11 02:09:05;;;;;;;4.93;1.17;;;11.60;99.90;;;;;;5478867;26;20553;-91
2024/04/11 02:11:35;;;;;;;4.22;1.00;;;11.60;99.90;;;;;;5478563;26;20180;-92
2024/04/11 02:14:03;;;;;;;4.63;1.17;;;11.60;99.90;;;;;;5478982;25;20523;-92
2024/04/11 02:16:34;;;;;;;5.03;1.23;;;11.70;99.90;;;;;;5478279;26;20369;-92
2024/04/11 02:19:06;;;;;;;5.82;0.98;;;11.70;99.90;;;;;;5477851;25;20538;-92
2024/04/11 02:21:36;;;;;;;3.22;0.80;;;11.70;99.90;;;;;;5446308;26;19994;-92
2024/04/11 02:24:06;;;;;;;5.53;1.15;;;11.70;99.90;;;;;;5477587;26;20003;-92
2024/04/11 02:26:34;;;;;;;8.35;1.48;;;11.80;99.90;;;;;;5467603;26;19994;-91
2024/04/11 02:29:02;;;;;;;8.90;1.25;;;11.80;99.90;;;;;;5475885;25;19994;-91
2024/04/11 02:31:30;;;;;;;9.60;1.33;;;11.80;99.90;;;;;;5442921;26;20474;-92
2024/04/11 02:33:57;;;;;;;4.63;0.80;;;11.80;99.90;;;;;;5414774;26;19993;-92
2024/04/11 02:36:29;;;;;;;12.90;2.80;;;11.80;99.90;;;;;;5424528;26;20279;-92
2024/04/11 02:38:57;;;;;;;2.08;0.65;;;11.90;99.90;;;;;;5474900;25;19998;-92
2024/04/11 02:41:24;;;;;;;6.60;1.08;;;11.90;99.90;;;;;;5477528;25;20519;-92
2024/04/11 02:43:53;;;;;;;7.00;1.67;;;11.90;99.90;;;;;;5475231;26;19994;-91
2024/04/11 02:46:20;;;;;;;8.48;2.08;;;11.90;99.90;;;;;;5476070;25;20188;-92
2024/04/11 02:48:48;;;;;;;8.73;2.30;;;11.90;99.90;;;;;;5474896;26;19993;-92
2024/04/11 02:51:15;;;;;;;8.48;2.50;;;12.00;99.90;;;;;;5474840;25;20523;-92
2024/04/11 02:53:45;;;;;;;3.55;0.75;;;12.00;99.90;;;;;;5473704;26;20430;-93
2024/04/11 02:56:12;;;;;;;3.90;1.08;;;12.00;99.90;;;;;;5474897;25;20503;-92
2024/04/11 02:58:40;;;;;;;9.40;2.30;;;11.90;99.90;;;;;;5474949;25;20447;-92
2024/04/11 03:01:09;;;;;;;6.35;1.15;;;11.90;99.90;;;;;;5440264;26;20191;-92
2024/04/11 03:03:37;;;;;;;4.88;1.08;;;11.90;99.90;;;;;;5441471;26;20313;-92
2024/04/11 03:06:06;;;;;;;5.40;1.63;;;11.90;99.90;;;;;;5441626;26;19998;-92
2024/04/11 03:08:33;;;;;;;7.35;1.40;;;11.90;99.90;;;;;;5412911;26;20004;-93
2024/04/11 03:11:01;;;;;;;6.15;1.60;;;11.90;99.90;;;;;;5450404;26;20531;-92
2024/04/11 03:13:28;;;;;;;8.40;2.00;;;11.90;99.90;;;;;;5472100;26;20004;-92
2024/04/11 03:15:59;;;;;;;10.23;2.30;;;11.90;99.90;;;;;;5474080;26;20344;-92
2024/04/11 03:18:30;;;;;;;10.38;2.47;;;12.00;99.90;;;;;;5473276;25;20773;-93
2024/04/11 03:20:59;;;;;;;6.10;1.52;;;12.00;99.90;;;;;;5474447;26;20003;-91
2024/04/11 03:23:28;;;;;;;5.47;1.52;;;12.00;99.90;;;;;;5474629;26;20443;-92
2024/04/11 03:25:55;;;;;;;4.45;1.50;;;12.00;99.90;;;;;;5459358;25;20819;-93
2024/04/11 03:28:22;;;;;;;3.35;0.90;;;11.90;99.90;;;;;;5475895;25;20564;-92
2024/04/11 03:30:56;;;;;;;9.95;1.08;;;12.00;99.90;;;;;;5446302;26;20004;-92
2024/04/11 03:33:26;;;;;;;9.93;2.63;;;12.00;99.90;;;;;;5476941;26;20005;-92
2024/04/11 03:35:57;;;;;;;4.03;1.23;;;12.00;99.90;;;;;;5480210;25;19997;-92
2024/04/11 03:38:24;;;;;;;5.15;1.13;;;12.00;99.90;;;;;;5477885;25;20529;-92
2024/04/11 03:41:03;;;;;;;10.18;2.25;;;12.00;99.90;;;;;;5478053;26;20512;-92
2024/04/11 03:43:33;;;;;;;9.32;2.33;;;12.00;99.90;;;;;;5476536;26;20475;-92
2024/04/11 03:46:11;;;;;;;4.05;1.20;;;12.10;99.90;;;;;;5475363;26;20210;-93
2024/04/11 03:48:39;;;;;;;5.28;1.50;;;12.00;99.90;;;;;;5449443;26;20003;-92
2024/04/11 03:51:18;;;;;;;8.23;1.30;;;12.00;99.90;;;;;;5479435;25;20446;-93
2024/04/11 03:53:56;;;;;;;5.20;1.15;;;12.00;99.90;;;;;;5445735;26;20325;-91
2024/04/11 03:56:24;;;;;;;5.57;1.38;;;11.90;99.90;;;;;;5480010;26;20003;-92
2024/04/11 03:58:52;;;;;;;2.33;0.70;;;12.00;99.90;;;;;;5473009;26;20446;-93
2024/04/11 04:01:21;;;;;;;9.43;2.60;;;12.00;99.90;;;;;;5478635;26;20004;-93
2024/04/11 04:03:51;;;;;;;5.28;1.33;;;12.00;99.90;;;;;;5478991;25;19994;-92
2024/04/11 04:06:19;;;;;;;6.03;1.42;;;12.00;99.90;;;;;;5475364;26;19994;-92
2024/04/11 04:08:47;;;;;;;3.83;0.82;;;12.00;99.90;;;;;;5481471;25;19993;-92
2024/04/11 04:11:16;;;;;;;8.73;2.38;;;12.10;99.90;;;;;;5451476;26;19993;-92
2024/04/11 04:13:44;;;;;;;5.40;1.38;;;12.10;99.90;;;;;;5449915;26;19994;-92
2024/04/11 04:16:12;;;;;;;6.80;1.20;;;12.10;99.90;;;;;;5450772;26;19993;-92
2024/04/11 04:18:40;;;;;;;3.65;1.00;;;12.10;99.90;;;;;;5482744;25;20424;-93
2024/04/11 04:21:08;;;;;;;9.10;1.58;;;12.10;99.90;;;;;;5484643;26;20500;-93
2024/04/11 04:23:36;;;;;;;4.68;1.42;;;12.10;99.90;;;;;;5485457;26;20440;-92
2024/04/11 04:26:05;;;;;;;4.75;1.48;;;12.10;99.90;;;;;;5498093;26;20011;-93
2024/04/11 04:28:38;;;;;;;9.10;2.38;;;12.00;99.90;;;;;;5526421;25;20018;-93
2024/04/11 04:31:12;;;;;;;3.75;1.08;;;12.10;99.90;;;;;;5518757;26;20384;-93
2024/04/11 04:33:39;;;;;;;13.23;2.90;;;12.00;99.90;;;;;;5507272;26;20007;-93
2024/04/11 04:36:06;;;;;;;4.72;1.25;;;12.00;99.90;;;;;;5509385;26;20025;-93
2024/04/11 04:38:34;;;;;;;5.45;1.40;;;12.00;99.90;;;;;;5519771;25;19997;-92
2024/04/11 04:41:03;;;;;;;6.20;1.25;;;12.00;99.90;;;;;;5512803;26;19998;-92
2024/04/11 04:43:30;;;;;;;6.10;1.23;;;11.90;99.90;;;;;;5506415;26;20004;-93
2024/04/11 04:46:00;;;;;;;10.40;2.45;;;11.90;99.90;;;;;;5519626;26;20492;-93
2024/04/11 04:48:29;;;;;;;7.32;1.42;;;11.90;99.90;;;;;;5517546;25;20352;-93
2024/04/11 04:50:56;;;;;;;6.13;1.42;;;11.90;99.90;;;;;;5517727;25;20068;-93
2024/04/11 04:53:23;;;;;;;10.98;2.72;;;11.80;99.90;;;;;;5518777;25;20007;-93
2024/04/11 04:55:50;;;;;;;6.10;1.40;;;11.80;99.90;;;;;;5515010;26;20016;-92
2024/04/11 04:58:17;;;;;;;9.20;2.42;;;11.80;99.90;;;;;;5518012;25;19993;-93
2024/04/11 05:00:44;;;;;;;11.07;2.75;;;11.80;99.90;;;;;;5519517;26;20104;-92
2024/04/11 05:03:12;;;;;;;4.97;1.20;;;11.80;99.90;;;;;;5520040;25;20500;-92
2024/04/11 05:05:40;;;;;;;10.73;1.73;;;11.70;99.90;;;;;;5504867;26;19993;-93
2024/04/11 05:08:08;;;;;;;5.20;1.60;;;11.70;99.90;;;;;;5504151;25;20001;-93
2024/04/11 05:10:35;;;;;;;8.40;1.05;;;11.60;99.90;;;;;;5502601;26;20019;-93
2024/04/11 05:13:09;;;;;;;5.30;1.02;;;11.60;99.90;;;;;;5518767;26;20015;-93
2024/04/11 05:15:39;;;;;;;8.85;2.28;;;11.60;99.90;;;;;;5516161;26;20026;-92
2024/04/11 05:18:06;;;;;;;4.18;1.50;;;11.60;99.90;;;;;;5496547;25;20011;-92
2024/04/11 05:20:34;;;;;;;4.07;1.05;;;11.60;99.90;;;;;;5501813;26;19998;-92
2024/04/11 05:23:01;;;;;;;5.30;1.27;;;11.60;99.90;;;;;;5511335;26;20016;-92
2024/04/11 05:25:30;;;;;;;7.72;1.33;;;11.50;99.90;;;;;;5499822;26;20352;-92
2024/04/11 05:27:57;;;;;;;9.07;1.90;;;11.50;99.90;;;;;;5499279;26;20005;-93
2024/04/11 05:30:27;;;;;;;6.00;1.15;;;11.50;99.90;;;;;;5517309;25;20005;-93
2024/04/11 05:32:57;;;;;;;2.00;0.77;;;11.40;99.90;;;;;;5500193;26;20078;-93
2024/04/11 05:35:23;;;;;;;5.47;0.98;;;11.40;99.90;;;;;;5519880;25;20008;-92
2024/04/11 05:37:50;;;;;;;4.60;1.45;;;11.40;99.90;;;;;;5500229;25;19993;-92
2024/04/11 05:40:17;;;;;;;10.90;2.95;;;11.40;99.90;;;;;;5500272;26;19997;-93
2024/04/11 05:42:45;;;;;;;3.78;0.90;;;11.40;99.90;;;;;;5496129;26;20019;-94
2024/04/11 05:45:12;;;;;;;4.75;1.15;;;11.40;99.90;;;;;;5507427;26;20379;-93
2024/04/11 05:47:40;;;;;;;6.00;1.50;;;11.30;99.90;;;;;;5505695;25;20099;-93
2024/04/11 05:50:07;;;;;;;3.30;1.00;;;11.30;99.90;;;;;;5507431;26;20029;-93
2024/04/11 05:52:33;;;;;;;5.45;0.98;;;11.20;99.90;;;;;;5504541;26;20003;-94
2024/04/11 05:55:02;;;;;;;5.88;1.50;;;11.20;99.90;;;;;;5501583;26;19993;-92
2024/04/11 05:57:29;;;;;;;2.55;1.10;;;11.10;99.90;;;;;;5491531;25;20001;-94
2024/04/11 05:59:56;;;;;;;9.18;2.80;;;11.10;99.90;;;;;;5519051;25;20386;-94
2024/04/11 06:02:23;;;;;;;7.03;1.77;;;11.10;99.90;;;;;;5507784;26;20026;-94
2024/04/11 06:04:52;;;;;;;3.70;1.20;;;11.10;99.90;;;;;;5504135;26;20034;-94
2024/04/11 06:07:19;;;;;;;4.38;1.25;;;11.10;99.90;;;;;;5518234;25;20025;-94
2024/04/11 06:09:50;;;;;;;5.95;1.33;;;11.00;99.90;;;;;;5503537;26;20008;-93
2024/04/11 06:12:19;;;;;;;3.50;0.90;;;11.00;99.90;;;;;;5500022;26;20406;-93
2024/04/11 06:14:45;;;;;;;4.32;1.35;;;11.00;99.90;;;;;;5502383;26;20106;-94
2024/04/11 06:17:12;;;;;;;4.65;1.45;;;11.00;99.90;;;;;;5505327;25;20020;-93
2024/04/11 06:19:39;;;;;;;4.88;1.08;;;11.00;99.90;;;;;;5539313;25;20548;-93
2024/04/11 06:22:06;;;;;;;6.32;1.52;;;11.00;99.90;;;;;;5515115;26;19993;-93
2024/04/11 06:24:35;;;;;;;3.00;1.20;;;11.00;99.90;;;;;;5493623;26;19997;-94
2024/04/11 06:27:04;;;;;;;14.50;1.63;;;11.00;99.90;;;;;;5518341;25;20481;-94
2024/04/11 06:29:37;;;;;;;6.60;1.88;;;11.00;99.90;;;;;;5497242;26;20026;-94
2024/04/11 06:32:06;;;;;;;9.55;1.67;;;11.00;99.90;;;;;;5491915;26;20005;-93
2024/04/11 06:34:33;;;;;;;8.43;1.73;;;11.00;99.90;;;;;;5507125;26;19994;-94
2024/04/11 06:37:00;;;;;;;4.78;1.30;;;11.10;99.90;;;;;;5500797;25;20008;-93
2024/04/11 06:39:27;;;;;;;6.88;1.42;;;11.10;99.90;;;;;;5501111;26;20018;-93
2024/04/11 06:41:55;;;;;;;11.30;3.45;;;11.10;99.90;;;;;;5498858;26;20414;-93
2024/04/11 06:44:21;;;;;;;4.07;1.20;;;11.10;99.90;;;;;;5503609;26;20008;-93
2024/04/11 06:46:49;;;;;;;2.40;0.98;;;11.10;99.90;;;;;;5515439;25;20018;-93
2024/04/11 06:49:16;;;;;;;3.40;1.40;;;11.10;99.90;;;;;;5497331;26;20005;-93
2024/04/11 06:51:44;;;;;;;7.75;2.25;;;11.10;99.90;;;;;;5518646;26;20374;-94
2024/04/11 06:54:13;;;;;;;6.07;1.73;;;11.10;99.90;;;;;;5491293;26;19993;-94
2024/04/11 06:56:43;;;;;;;4.40;1.25;;;11.10;99.90;;;;;;5498411;25;19994;-93
2024/04/11 06:59:12;;;;;;;3.40;1.23;;;11.10;99.90;;;;;;5498188;26;20022;-93
2024/04/11 07:01:47;;;;;;;6.00;1.38;;;11.10;99.90;;;;;;5507459;26;20012;-92
2024/04/11 07:04:15;;;;;;;10.02;2.08;;;11.10;99.90;;;;;;5503750;26;20030;-92
2024/04/11 07:06:42;;;;;;;11.82;3.40;;;11.10;99.90;;;;;;5500615;25;19997;-93
2024/04/11 07:09:11;;;;;;;7.35;1.75;;;11.20;99.90;;;;;;5516450;25;20021;-93
2024/04/11 07:11:41;;;;;;;8.20;1.48;;;11.20;99.90;;;;;;5507543;26;20005;-94
2024/04/11 07:14:15;;;;;;;7.22;1.70;;;11.20;99.90;;;;;;5496801;26;20012;-93
2024/04/11 07:16:44;;;;;;;6.97;1.85;;;11.20;99.90;;;;;;5492546;25;20019;-93
2024/04/11 07:19:12;;;;;;;10.32;3.67;;;11.20;99.90;;;;;;5517711;26;20619;-94
2024/04/11 07:21:39;;;;;;;11.13;3.85;;;11.30;99.90;;;;;;5495202;26;20018;-94
2024/04/11 07:24:07;;;;;;;5.18;1.65;;;11.40;99.90;;;;;;5518166;25;20033;-93
2024/04/11 07:26:36;;;;;;;6.25;1.83;;;11.40;99.90;;;;;;5487208;26;20012;-93
2024/04/11 07:29:05;;;;;;;9.57;1.70;;;11.40;99.90;;;;;;5498079;26;20029;-93
2024/04/11 07:31:41;;;;;;;3.80;1.30;;;11.40;99.90;;;;;;5518098;26;20022;-93
2024/04/11 07:34:08;;;;;;;3.85;1.38;;;11.40;99.90;;;;;;5517768;26;20010;-92
2024/04/11 07:36:44;;;;;;;9.80;1.85;;;11.40;99.90;;;;;;5516627;25;20034;-93
2024/04/11 07:39:13;;;;;;;11.25;3.63;;;11.40;99.90;;;;;;5508100;26;19998;-93
2024/04/11 07:41:46;;;;;;;12.43;3.78;;;11.50;99.90;;;;;;5516986;26;20025;-93
2024/04/11 07:44:22;;;;;;;2.25;0.90;;;11.60;99.90;;;;;;5500370;26;20004;-92
2024/04/11 07:46:49;;;;;;;4.75;1.70;;;11.60;99.90;;;;;;5514364;25;20023;-93
2024/04/11 07:49:16;;;;;;;11.10;3.47;;;11.50;99.90;;;;;;5503327;26;20012;-93
2024/04/11 07:51:43;;;;;;;3.92;1.38;;;11.60;99.90;;;;;;5517651;25;20026;-92
2024/04/11 07:54:13;;;;;;;4.53;1.92;;;11.60;99.90;;;;;;5502452;26;20008;-94
2024/04/11 07:56:41;;;;;;;5.50;1.42;;;11.50;99.90;;;;;;5514978;25;20029;-93
2024/04/11 07:59:11;;;;;;;5.50;1.60;;;11.50;99.90;;;;;;5502050;26;19997;-93
2024/04/11 08:01:41;;;;;;;11.65;3.65;;;11.50;99.90;;;;;;5495980;26;20007;-94
2024/04/11 08:04:11;;;;;;;2.67;1.35;;;11.60;99.90;;;;;;5497114;26;20012;-93
2024/04/11 08:06:38;;;;;;;9.45;1.50;;;11.60;99.90;;;;;;5494494;25;20021;-93
2024/04/11 08:09:08;;;;;;;4.13;1.45;;;11.60;99.90;;;;;;5499145;26;20518;-93
2024/04/11 08:11:35;;;;;;;5.13;1.02;;;11.60;99.90;;;;;;5500380;26;20500;-93
2024/04/11 08:14:06;;;;;;;7.25;1.38;;;11.70;99.90;;;;;;5517083;25;20477;-93
2024/04/11 08:16:33;;;;;;;2.70;1.35;;;11.70;99.90;;;;;;5503758;26;20001;-93
2024/04/11 08:19:05;;;;;;;5.80;1.45;;;11.70;99.90;;;;;;5502811;26;20022;-93
2024/04/11 08:21:33;;;;;;;9.85;3.90;;;11.80;99.90;;;;;;5520040;26;19994;-93
2024/04/11 08:24:00;;;;;;;2.03;0.98;;;11.90;99.90;;;;;;5491326;26;20011;-92
2024/04/11 08:26:29;;;;;;;5.88;1.65;;;12.00;99.90;;;;;;5502392;26;20025;-95
2024/04/11 08:28:56;;;;;;;4.20;1.08;;;12.00;99.90;;;;;;5494892;25;20004;-92
2024/04/11 08:31:30;;;;;;;10.60;3.80;;;12.00;99.90;;;;;;5520397;25;20484;-93
2024/04/11 08:33:58;;;;;;;10.60;3.45;;;12.00;99.90;;;;;;5504009;25;19993;-93
2024/04/11 08:36:26;;;;;;;4.30;1.48;;;12.10;99.90;;;;;;5519539;26;20428;-93
2024/04/11 08:38:55;;;;;;;7.75;2.20;;;12.10;99.90;;;;;;5505967;26;20029;-94
2024/04/11 08:41:22;;;;;;;4.78;1.50;;;12.10;99.90;;;;;;5510037;26;19997;-92
2024/04/11 08:43:50;;;;;;;3.10;0.90;;;12.10;99.90;;;;;;5493953;26;19998;-93
2024/04/11 08:46:17;;;;;;;4.38;1.40;;;12.10;99.90;;;;;;5509669;26;20070;-93
2024/04/11 08:48:44;;;;;;;8.20;2.60;;;12.20;99.90;;;;;;5520524;25;20033;-93
2024/04/11 08:51:14;;;;;;;4.22;1.77;;;12.20;99.90;;;;;;5488533;26;20007;-93
2024/04/11 08:53:45;;;;;;;7.25;1.85;;;12.20;99.90;;;;;;5510304;26;20026;-93
2024/04/11 08:56:14;;;;;;;7.93;2.05;;;12.20;99.90;;;;;;5484873;26;20049;-94
2024/04/11 08:58:45;;;;;;;13.27;4.95;;;12.20;99.90;;;;;;5512992;25;20003;-94
2024/04/11 09:01:23;;;;;;;8.50;2.17;;;12.30;99.90;;;;;;5500991;25;20033;-94
2024/04/11 09:03:52;;;;;;;12.98;2.47;;;12.30;99.90;;;;;;5518896;25;20026;-93
2024/04/11 09:06:28;;;;;;;10.35;2.88;;;12.30;99.90;;;;;;5504325;26;20017;-94
2024/04/11 09:08:59;;;;;;;3.90;1.35;;;12.40;99.90;;;;;;5518890;25;20980;-92
2024/04/11 09:11:27;;;;;;;7.70;2.13;;;12.50;99.90;;;;;;5519144;25;20040;-93
2024/04/11 09:13:58;;;;;;;8.15;2.35;;;12.50;99.90;;;;;;5506680;26;20385;-94
2024/04/11 09:16:27;;;;;;;6.00;2.28;;;12.60;99.90;;;;;;5517169;26;20746;-93
2024/04/11 09:19:04;;;;;;;12.70;5.55;;;12.60;99.90;;;;;;5519316;25;20029;-93
2024/04/11 09:21:32;;;;;;;9.20;2.97;;;12.70;99.90;;;;;;5518972;25;20029;-94
2024/04/11 09:23:59;;;;;;;8.77;2.40;;;12.70;99.90;;;;;;5495524;26;19994;-93
2024/04/11 09:26:29;;;;;;;7.90;2.85;;;12.70;99.90;;;;;;5519380;25;20004;-94
2024/04/11 09:28:56;;;;;;;6.72;1.80;;;12.70;99.90;;;;;;5500305;26;20008;-94
2024/04/11 09:31:26;;;;;;;6.45;2.08;;;12.70;99.90;;;;;;5500078;26;20009;-94
2024/04/11 09:33:54;;;;;;;8.70;3.00;;;12.80;99.90;;;;;;5506447;26;20025;-94
2024/04/11 09:36:27;;;;;;;11.32;3.75;;;12.80;99.90;;;;;;5504127;26;20004;-93
2024/04/11 09:39:04;;;;;;;15.20;7.28;;;12.80;99.90;;;;;;5496686;26;19997;-94
2024/04/11 09:41:36;;;;;;;10.23;3.13;;;12.90;99.90;;;;;;5499953;26;19993;-93
2024/04/11 09:44:06;;;;;;;13.73;6.65;;;12.90;99.90;;;;;;5515712;26;20033;-93
2024/04/11 09:46:41;;;;;;;13.20;3.28;;;13.00;99.90;;;;;;5508391;26;20465;-94
2024/04/11 09:49:14;;;;;;;6.10;2.78;;;13.00;99.90;;;;;;5519050;25;20036;-93
2024/04/11 09:51:42;;;;;;;15.48;8.80;;;13.00;99.90;;;;;;5506941;26;19997;-94
2024/04/11 09:54:13;;;;;;;7.38;2.70;;;13.00;99.90;;;;;;5505995;26;19997;-94
2024/04/11 09:56:46;;;;;;;9.75;3.47;;;13.00;99.90;;;;;;5518732;25;19997;-93
2024/04/11 09:59:15;;;;;;;7.47;2.67;;;13.00;99.90;;;;;;5518877;25;20045;-94
2024/04/11 10:01:42;;;;;;;6.90;2.33;;;13.00;99.90;;;;;;5505676;26;20011;-94
2024/04/11 10:04:21;;;;;;;6.63;3.10;;;13.00;99.90;;;;;;5512892;26;20493;-94
2024/04/11 10:06:59;;;;;;;7.38;3.17;;;13.00;99.90;;;;;;5512954;25;20008;-92
2024/04/11 10:09:31;;;;;;;9.63;4.28;;;13.00;99.90;;;;;;5509378;26;20393;-93
2024/04/11 10:12:00;;;;;;;;;;;13.00;99.90;;;;;;5489786;26;20501;-93
2024/04/11 10:14:31;;;;;;;13.90;4.80;;;13.10;99.90;;;;;;5505786;26;19941;-93
2024/04/11 10:17:01;;;;;;;6.65;2.65;;;13.10;99.90;;;;;;5517913;25;20020;-93
2024/04/11 10:19:33;;;;;;;7.07;2.97;;;13.10;99.90;;;;;;5495875;26;20008;-94
2024/04/11 10:22:01;;;;;;;15.98;8.50;;;13.20;99.90;;;;;;5518552;25;20396;-93
2024/04/11 10:24:31;;;;;;;7.22;2.95;;;13.20;99.90;;;;;;5497350;26;19994;-92
2024/04/11 10:27:10;;;;;;;16.30;8.93;;;13.30;99.90;;;;;;5506379;25;19997;-93
2024/04/11 10:29:43;;;;;;;15.32;8.80;;;13.30;99.90;;;;;;5516698;25;20004;-93
2024/04/11 10:32:22;;;;;;;9.38;4.50;;;13.40;99.90;;;;;;5496543;26;20356;-93
2024/04/11 10:34:56;;;;;;;13.02;8.50;;;13.30;99.90;;;;;;5504514;26;20025;-94
2024/04/11 10:37:29;;;;;;;7.05;2.38;;;13.30;99.90;;;;;;5518074;25;20029;-94
2024/04/11 10:39:57;;;;;;;9.77;3.95;;;13.30;99.90;;;;;;5501839;26;20045;-95
2024/04/11 10:42:39;;;;;;;16.38;9.65;;;13.30;99.90;;;;;;5501901;26;20025;-94
2024/04/11 10:45:10;;;;;;;16.38;9.80;;;13.40;99.90;;;;;;5493164;26;20029;-93
2024/04/11 10:47:41;;;;;;;7.88;3.47;;;13.50;99.90;;;;;;5518087;25;20380;-95
2024/04/11 10:50:14;;;;;;;9.88;3.83;;;13.50;99.90;;;;;;5517171;26;20026;-94
2024/04/11 10:52:46;;;;;;;9.50;4.47;;;13.50;99.90;;;;;;5517611;25;20041;-95
2024/04/11 10:55:28;;;;;;;11.80;5.55;;;13.60;99.90;;;;;;5491646;26;20023;-94
2024/04/11 10:58:13;;;;;;;15.18;9.98;;;13.60;99.90;;;;;;5518098;25;20048;-95
2024/04/11 11:01:07;;;;;;;14.50;10.88;;;13.70;99.90;;;;;;5506442;26;19997;-95
2024/04/11 11:06:25;;;;;;;8.98;3.22;;;13.80;99.90;;;;;;5518220;25;20100;-95
2024/04/11 11:08:59;;;;;;;12.75;4.90;;;13.70;99.90;;;;;;5504946;25;20095;-94
2024/04/11 11:11:26;;;;;;;17.05;10.68;;;13.70;99.90;;;;;;5495751;26;19994;-93
2024/04/11 11:13:55;;;;;;;9.20;4.45;;;13.70;99.90;;;;;;5507622;26;19994;-94
2024/04/11 11:16:25;;;;;;;16.38;5.20;;;13.70;99.90;;;;;;5496438;26;19994;-93
2024/04/11 11:18:53;;;;;;;8.60;2.80;;;13.70;99.90;;;;;;5502603;25;21062;-94
2024/04/11 11:21:22;;;;;;;11.52;5.00;;;13.70;99.90;;;;;;5494632;26;20070;-95
2024/04/11 11:23:59;;;;;;;17.48;12.00;;;13.60;99.90;;;;;;5493469;26;20029;-94
2024/04/11 11:26:36;;;;;;;19.23;11.95;;;13.70;99.90;;;;;;5515466;26;20022;-94
2024/04/11 11:29:05;;;;;;;16.95;12.20;;;13.70;99.90;;;;;;5488506;26;20022;-94
2024/04/11 11:31:36;;;;;;;11.00;4.40;;;13.70;99.90;;;;;;5516451;26;20021;-94
2024/04/11 11:34:11;;;;;;;6.00;3.20;;;13.70;99.90;;;;;;5500572;26;20002;-95
2024/04/11 11:36:40;;;;;;;15.60;5.50;;;13.60;99.90;;;;;;5496666;26;20066;-94
2024/04/11 11:39:17;;;;;;;11.85;5.78;;;13.50;99.90;;;;;;5495529;26;20336;-94
2024/04/11 11:41:49;;;;;;;9.88;3.92;;;13.60;99.90;;;;;;5497976;25;20027;-93
2024/04/11 11:44:21;;;;;;;19.05;13.65;;;13.60;99.90;;;;;;5490040;26;20010;-93
2024/04/11 11:47:05;;;;;;;8.75;4.32;;;13.60;99.90;;;;;;5512958;26;20504;-94
2024/04/11 11:49:39;;;;;;;11.32;4.47;;;13.60;99.90;;;;;;5514802;25;20104;-94
2024/04/11 11:52:08;;;;;;;8.90;5.10;;;13.60;99.90;;;;;;5498885;26;19997;-94
2024/04/11 11:54:35;;;;;;;18.95;14.18;;;13.60;99.90;;;;;;5519950;25;20022;-94
2024/04/11 11:57:17;;;;;;;8.70;4.05;;;13.60;99.90;;;;;;5504421;25;19994;-94
2024/04/11 11:59:45;;;;;;;13.07;5.90;;;13.60;99.90;;;;;;5520543;26;20489;-94
2024/04/11 12:02:15;;;;;;;21.45;14.27;;;13.60;99.90;;;;;;5508784;26;20025;-94
2024/04/11 12:04:46;;;;;;;19.48;14.73;;;13.70;99.90;;;;;;5498632;26;20025;-95
2024/04/11 12:07:13;;;;;;;9.23;4.32;;;13.80;99.90;;;;;;5507768;26;20033;-94
2024/04/11 12:09:43;;;;;;;15.38;5.78;;;13.70;99.90;;;;;;5507554;26;20022;-94
2024/04/11 12:12:23;;;;;;;21.90;15.95;;;13.70;99.90;;;;;;5513552;26;20033;-94
2024/04/11 12:15:01;;;;;;;18.73;15.23;;;13.70;99.90;;;;;;5528405;26;20017;-94
2024/04/11 12:17:28;;;;;;;15.30;7.53;;;13.70;99.90;;;;;;5521343;25;20532;-94
2024/04/11 12:20:05;;;;;;;12.13;6.10;;;13.70;99.90;;;;;;5506630;26;20025;-94
2024/04/11 12:22:36;;;;;;;13.35;6.57;;;13.70;99.90;;;;;;5503163;26;20001;-94
2024/04/11 12:25:03;;;;;;;19.45;15.25;;;13.70;99.90;;;;;;5508457;26;20025;-93
2024/04/11 12:27:30;;;;;;;13.95;7.45;;;13.70;99.90;;;;;;5511522;25;20108;-94
2024/04/11 12:29:59;;;;;;;12.60;5.97;;;13.80;99.90;;;;;;5511032;26;20008;-94
2024/04/11 12:32:25;;;;;;;18.00;15.55;;;13.80;99.90;;;;;;5520455;26;20021;-94
2024/04/11 12:34:56;;;;;;;14.95;5.95;;;13.80;99.90;;;;;;5520688;26;20714;-94
2024/04/11 12:37:26;;;;;;;10.35;5.40;;;13.80;99.90;;;;;;5496297;25;20004;-94
2024/04/11 12:39:53;;;;;;;16.13;8.27;;;13.80;99.90;;;;;;5513872;25;20005;-95
2024/04/11 12:42:24;;;;;;;14.55;5.40;;;13.80;99.90;;;;;;5520874;25;20026;-95
2024/04/11 12:44:55;;;;;;;19.13;16.73;;;13.90;99.90;;;;;;5502484;26;20427;-94
2024/04/11 12:50:14;;;;;;;15.45;13.40;;;14.00;99.90;;;;;;5519463;26;20026;-93
2024/04/11 12:52:45;;;;;;;10.20;5.28;;;14.00;99.90;;;;;;5499294;26;19997;-94
2024/04/11 12:55:12;;;;;;;10.38;4.32;;;14.00;99.90;;;;;;5498545;26;20008;-95
2024/04/11 12:57:39;;;;;;;13.57;12.15;;;13.90;99.90;;;;;;5520854;25;20377;-95
2024/04/11 13:00:34;;;;;;;6.88;3.15;;;14.00;99.90;;;;;;5508839;26;20025;-94